sensor_id;sensor_type;location;lat;lon;timestamp;P1;durP1;ratioP1;P2;durP2;ratioP2
82744;SDS011;72484;50.004;14.356;2023-12-22T00:01:06;9.70;;;2.30;;
82744;SDS011;72484;50.004;14.356;2023-12-22T00:05:05;9.30;;;2.20;;
82744;SDS011;72484;50.004;14.356;2023-12-22T00:09:03;10.10;;;2.20;;
82744;SDS011;72484;50.004;14.356;2023-12-22T00:13:01;9.90;;;2.10;;
82744;SDS011;72484;50.004;14.356;2023-12-22T00:16:59;9.10;;;2.10;;
82744;SDS011;72484;50.004;14.356;2023-12-22T00:20:56;9.10;;;2.10;;
82744;SDS011;72484;50.004;14.356;2023-12-22T00:24:54;9.10;;;2.00;;
82744;SDS011;72484;50.004;14.356;2023-12-22T00:28:52;12.90;;;2.30;;
82744;SDS011;72484;50.004;14.356;2023-12-22T00:32:50;9.20;;;1.90;;
82744;SDS011;72484;50.004;14.356;2023-12-22T00:36:48;10.10;;;1.80;;
82744;SDS011;72484;50.004;14.356;2023-12-22T00:40:45;10.00;;;2.20;;
82744;SDS011;72484;50.004;14.356;2023-12-22T00:44:42;8.00;;;2.10;;
82744;SDS011;72484;50.004;14.356;2023-12-22T00:48:43;11.50;;;2.10;;
82744;SDS011;72484;50.004;14.356;2023-12-22T00:52:40;11.00;;;2.10;;
82744;SDS011;72484;50.004;14.356;2023-12-22T00:56:37;11.60;;;2.40;;
82744;SDS011;72484;50.004;14.356;2023-12-22T01:00:35;12.10;;;2.60;;
82744;SDS011;72484;50.004;14.356;2023-12-22T01:04:32;12.40;;;2.30;;
82744;SDS011;72484;50.004;14.356;2023-12-22T01:08:30;11.00;;;2.70;;
82744;SDS011;72484;50.004;14.356;2023-12-22T01:12:29;10.90;;;2.20;;
82744;SDS011;72484;50.004;14.356;2023-12-22T01:16:33;12.20;;;2.30;;
82744;SDS011;72484;50.004;14.356;2023-12-22T01:20:06;11.30;;;2.70;;
82744;SDS011;72484;50.004;14.356;2023-12-22T01:24:05;14.20;;;2.40;;
82744;SDS011;72484;50.004;14.356;2023-12-22T01:28:09;11.30;;;2.60;;
82744;SDS011;72484;50.004;14.356;2023-12-22T01:31:41;13.60;;;2.70;;
82744;SDS011;72484;50.004;14.356;2023-12-22T01:35:39;14.20;;;2.80;;
82744;SDS011;72484;50.004;14.356;2023-12-22T01:39:36;12.60;;;2.40;;
82744;SDS011;72484;50.004;14.356;2023-12-22T01:43:54;11.00;;;1.90;;
82744;SDS011;72484;50.004;14.356;2023-12-22T01:47:12;8.70;;;1.90;;
82744;SDS011;72484;50.004;14.356;2023-12-22T01:51:10;12.50;;;2.50;;
82744;SDS011;72484;50.004;14.356;2023-12-22T01:55:08;11.00;;;2.60;;
82744;SDS011;72484;50.004;14.356;2023-12-22T01:59:09;11.50;;;2.00;;
82744;SDS011;72484;50.004;14.356;2023-12-22T02:03:07;11.00;;;2.70;;
82744;SDS011;72484;50.004;14.356;2023-12-22T02:07:05;11.90;;;2.30;;
82744;SDS011;72484;50.004;14.356;2023-12-22T02:11:04;11.70;;;2.50;;
82744;SDS011;72484;50.004;14.356;2023-12-22T02:15:03;12.70;;;3.00;;
82744;SDS011;72484;50.004;14.356;2023-12-22T02:19:04;9.30;;;2.60;;
82744;SDS011;72484;50.004;14.356;2023-12-22T02:23:10;10.10;;;2.20;;
82744;SDS011;72484;50.004;14.356;2023-12-22T02:27:11;11.50;;;2.10;;
82744;SDS011;72484;50.004;14.356;2023-12-22T02:31:18;10.80;;;2.00;;
82744;SDS011;72484;50.004;14.356;2023-12-22T02:35:25;12.70;;;2.80;;
82744;SDS011;72484;50.004;14.356;2023-12-22T02:39:28;13.90;;;2.80;;
82744;SDS011;72484;50.004;14.356;2023-12-22T02:43:25;9.90;;;2.00;;
82744;SDS011;72484;50.004;14.356;2023-12-22T02:47:23;11.80;;;2.60;;
82744;SDS011;72484;50.004;14.356;2023-12-22T02:51:22;10.40;;;2.30;;
82744;SDS011;72484;50.004;14.356;2023-12-22T02:55:38;11.90;;;2.10;;
82744;SDS011;72484;50.004;14.356;2023-12-22T02:58:57;11.30;;;2.50;;
82744;SDS011;72484;50.004;14.356;2023-12-22T03:02:55;12.90;;;2.80;;
82744;SDS011;72484;50.004;14.356;2023-12-22T03:06:52;12.60;;;2.80;;
82744;SDS011;72484;50.004;14.356;2023-12-22T03:10:49;11.90;;;2.40;;
82744;SDS011;72484;50.004;14.356;2023-12-22T03:14:46;13.60;;;2.70;;
82744;SDS011;72484;50.004;14.356;2023-12-22T03:18:44;13.10;;;2.70;;
82744;SDS011;72484;50.004;14.356;2023-12-22T03:22:42;10.00;;;2.10;;
82744;SDS011;72484;50.004;14.356;2023-12-22T03:26:39;14.90;;;2.90;;
82744;SDS011;72484;50.004;14.356;2023-12-22T03:30:37;12.60;;;2.90;;
82744;SDS011;72484;50.004;14.356;2023-12-22T03:34:35;14.50;;;2.90;;
82744;SDS011;72484;50.004;14.356;2023-12-22T03:38:32;14.90;;;3.30;;
82744;SDS011;72484;50.004;14.356;2023-12-22T03:42:30;11.90;;;2.60;;
82744;SDS011;72484;50.004;14.356;2023-12-22T03:46:27;14.40;;;2.60;;
82744;SDS011;72484;50.004;14.356;2023-12-22T03:50:25;15.30;;;2.70;;
82744;SDS011;72484;50.004;14.356;2023-12-22T03:54:22;15.50;;;3.30;;
82744;SDS011;72484;50.004;14.356;2023-12-22T03:58:20;13.10;;;2.60;;
82744;SDS011;72484;50.004;14.356;2023-12-22T04:02:19;11.70;;;2.40;;
82744;SDS011;72484;50.004;14.356;2023-12-22T04:06:17;16.30;;;3.00;;
82744;SDS011;72484;50.004;14.356;2023-12-22T04:10:17;12.30;;;2.90;;
82744;SDS011;72484;50.004;14.356;2023-12-22T04:14:14;12.80;;;2.80;;
82744;SDS011;72484;50.004;14.356;2023-12-22T04:18:13;17.30;;;3.10;;
82744;SDS011;72484;50.004;14.356;2023-12-22T04:22:11;12.30;;;2.50;;
82744;SDS011;72484;50.004;14.356;2023-12-22T04:26:08;12.00;;;2.60;;
82744;SDS011;72484;50.004;14.356;2023-12-22T04:30:07;14.80;;;3.00;;
82744;SDS011;72484;50.004;14.356;2023-12-22T04:34:06;13.10;;;2.50;;
82744;SDS011;72484;50.004;14.356;2023-12-22T04:38:04;14.30;;;3.10;;
82744;SDS011;72484;50.004;14.356;2023-12-22T04:42:02;14.80;;;2.90;;
82744;SDS011;72484;50.004;14.356;2023-12-22T04:46:00;12.80;;;2.30;;
82744;SDS011;72484;50.004;14.356;2023-12-22T04:50:01;13.70;;;2.60;;
82744;SDS011;72484;50.004;14.356;2023-12-22T04:53:59;17.30;;;3.00;;
82744;SDS011;72484;50.004;14.356;2023-12-22T04:57:59;11.80;;;2.30;;
82744;SDS011;72484;50.004;14.356;2023-12-22T05:01:59;11.70;;;2.40;;
82744;SDS011;72484;50.004;14.356;2023-12-22T05:05:56;12.30;;;2.50;;
82744;SDS011;72484;50.004;14.356;2023-12-22T05:09:54;11.10;;;2.40;;
82744;SDS011;72484;50.004;14.356;2023-12-22T05:13:53;10.20;;;2.20;;
82744;SDS011;72484;50.004;14.356;2023-12-22T05:17:50;8.40;;;1.80;;
82744;SDS011;72484;50.004;14.356;2023-12-22T05:21:48;14.00;;;3.00;;
82744;SDS011;72484;50.004;14.356;2023-12-22T05:25:48;10.30;;;2.50;;
82744;SDS011;72484;50.004;14.356;2023-12-22T05:29:45;13.60;;;3.10;;
82744;SDS011;72484;50.004;14.356;2023-12-22T05:33:43;13.10;;;2.90;;
82744;SDS011;72484;50.004;14.356;2023-12-22T05:37:40;10.50;;;2.30;;
82744;SDS011;72484;50.004;14.356;2023-12-22T05:41:38;10.70;;;2.20;;
82744;SDS011;72484;50.004;14.356;2023-12-22T05:45:36;10.50;;;2.30;;
82744;SDS011;72484;50.004;14.356;2023-12-22T05:49:34;11.10;;;2.30;;
82744;SDS011;72484;50.004;14.356;2023-12-22T05:53:32;10.70;;;2.10;;
82744;SDS011;72484;50.004;14.356;2023-12-22T05:57:29;10.30;;;2.10;;
82744;SDS011;72484;50.004;14.356;2023-12-22T06:01:27;11.30;;;2.50;;
82744;SDS011;72484;50.004;14.356;2023-12-22T06:05:24;7.10;;;1.70;;
82744;SDS011;72484;50.004;14.356;2023-12-22T06:09:22;9.90;;;2.20;;
82744;SDS011;72484;50.004;14.356;2023-12-22T06:13:38;7.60;;;1.80;;
82744;SDS011;72484;50.004;14.356;2023-12-22T06:16:56;8.60;;;1.50;;
82744;SDS011;72484;50.004;14.356;2023-12-22T06:20:55;8.10;;;1.60;;
82744;SDS011;72484;50.004;14.356;2023-12-22T06:24:52;8.40;;;1.80;;
82744;SDS011;72484;50.004;14.356;2023-12-22T06:28:51;7.70;;;1.50;;
82744;SDS011;72484;50.004;14.356;2023-12-22T06:32:49;10.00;;;2.20;;
82744;SDS011;72484;50.004;14.356;2023-12-22T06:36:47;7.40;;;1.70;;
82744;SDS011;72484;50.004;14.356;2023-12-22T06:40:45;8.60;;;2.10;;
82744;SDS011;72484;50.004;14.356;2023-12-22T06:44:43;8.40;;;2.00;;
82744;SDS011;72484;50.004;14.356;2023-12-22T06:48:41;7.70;;;1.50;;
82744;SDS011;72484;50.004;14.356;2023-12-22T06:52:39;11.10;;;2.00;;
82744;SDS011;72484;50.004;14.356;2023-12-22T06:56:37;7.90;;;1.60;;
82744;SDS011;72484;50.004;14.356;2023-12-22T07:00:40;9.60;;;1.70;;
82744;SDS011;72484;50.004;14.356;2023-12-22T07:13:29;8.50;;;1.50;;
82744;SDS011;72484;50.004;14.356;2023-12-22T07:17:26;7.80;;;1.60;;
82744;SDS011;72484;50.004;14.356;2023-12-22T07:21:24;6.60;;;1.30;;
82744;SDS011;72484;50.004;14.356;2023-12-22T07:25:22;6.80;;;1.40;;
82744;SDS011;72484;50.004;14.356;2023-12-22T07:29:19;7.70;;;1.40;;
82744;SDS011;72484;50.004;14.356;2023-12-22T07:33:18;8.20;;;1.70;;
82744;SDS011;72484;50.004;14.356;2023-12-22T07:37:15;8.00;;;1.80;;
82744;SDS011;72484;50.004;14.356;2023-12-22T07:41:13;6.70;;;1.50;;
82744;SDS011;72484;50.004;14.356;2023-12-22T07:45:10;7.00;;;1.50;;
82744;SDS011;72484;50.004;14.356;2023-12-22T07:49:11;6.30;;;1.40;;
82744;SDS011;72484;50.004;14.356;2023-12-22T07:53:08;7.30;;;1.60;;
82744;SDS011;72484;50.004;14.356;2023-12-22T07:57:06;7.40;;;1.50;;
82744;SDS011;72484;50.004;14.356;2023-12-22T08:01:04;6.90;;;1.30;;
82744;SDS011;72484;50.004;14.356;2023-12-22T08:05:02;7.20;;;1.10;;
82744;SDS011;72484;50.004;14.356;2023-12-22T08:09:00;7.30;;;1.50;;
82744;SDS011;72484;50.004;14.356;2023-12-22T08:12:58;6.80;;;1.50;;
82744;SDS011;72484;50.004;14.356;2023-12-22T08:16:55;7.70;;;1.30;;
82744;SDS011;72484;50.004;14.356;2023-12-22T08:20:53;7.70;;;1.30;;
82744;SDS011;72484;50.004;14.356;2023-12-22T08:24:51;5.70;;;1.20;;
82744;SDS011;72484;50.004;14.356;2023-12-22T08:28:49;5.90;;;1.10;;
82744;SDS011;72484;50.004;14.356;2023-12-22T08:32:49;6.30;;;1.10;;
82744;SDS011;72484;50.004;14.356;2023-12-22T08:36:48;9.10;;;1.40;;
82744;SDS011;72484;50.004;14.356;2023-12-22T08:40:46;5.70;;;1.20;;
82744;SDS011;72484;50.004;14.356;2023-12-22T08:44:44;6.00;;;1.10;;
82744;SDS011;72484;50.004;14.356;2023-12-22T08:48:41;6.70;;;1.40;;
82744;SDS011;72484;50.004;14.356;2023-12-22T08:52:39;6.20;;;1.40;;
82744;SDS011;72484;50.004;14.356;2023-12-22T08:56:39;6.70;;;1.50;;
82744;SDS011;72484;50.004;14.356;2023-12-22T09:00:37;9.10;;;1.60;;
82744;SDS011;72484;50.004;14.356;2023-12-22T09:04:35;6.00;;;1.60;;
82744;SDS011;72484;50.004;14.356;2023-12-22T09:08:33;7.10;;;1.50;;
82744;SDS011;72484;50.004;14.356;2023-12-22T09:12:31;7.80;;;1.80;;
82744;SDS011;72484;50.004;14.356;2023-12-22T09:16:31;6.90;;;1.50;;
82744;SDS011;72484;50.004;14.356;2023-12-22T09:20:29;7.70;;;1.60;;
82744;SDS011;72484;50.004;14.356;2023-12-22T09:24:27;8.60;;;1.40;;
82744;SDS011;72484;50.004;14.356;2023-12-22T09:28:25;8.00;;;1.50;;
82744;SDS011;72484;50.004;14.356;2023-12-22T09:32:30;6.70;;;1.10;;
82744;SDS011;72484;50.004;14.356;2023-12-22T09:36:00;6.50;;;1.30;;
82744;SDS011;72484;50.004;14.356;2023-12-22T09:39:58;8.30;;;1.20;;
82744;SDS011;72484;50.004;14.356;2023-12-22T09:43:56;6.70;;;1.20;;
82744;SDS011;72484;50.004;14.356;2023-12-22T09:47:56;5.40;;;1.00;;
82744;SDS011;72484;50.004;14.356;2023-12-22T09:51:55;5.30;;;1.10;;
82744;SDS011;72484;50.004;14.356;2023-12-22T09:55:55;4.80;;;0.80;;
82744;SDS011;72484;50.004;14.356;2023-12-22T09:59:54;5.40;;;0.90;;
82744;SDS011;72484;50.004;14.356;2023-12-22T10:03:55;4.70;;;0.80;;
82744;SDS011;72484;50.004;14.356;2023-12-22T10:07:53;5.00;;;0.80;;
82744;SDS011;72484;50.004;14.356;2023-12-22T10:11:52;3.30;;;0.70;;
82744;SDS011;72484;50.004;14.356;2023-12-22T10:15:51;3.00;;;0.70;;
82744;SDS011;72484;50.004;14.356;2023-12-22T10:19:51;4.00;;;0.90;;
82744;SDS011;72484;50.004;14.356;2023-12-22T10:23:48;3.60;;;0.70;;
82744;SDS011;72484;50.004;14.356;2023-12-22T10:27:46;3.90;;;0.70;;
82744;SDS011;72484;50.004;14.356;2023-12-22T10:31:44;3.50;;;0.70;;
82744;SDS011;72484;50.004;14.356;2023-12-22T10:35:42;4.20;;;0.80;;
82744;SDS011;72484;50.004;14.356;2023-12-22T10:39:40;3.80;;;0.70;;
82744;SDS011;72484;50.004;14.356;2023-12-22T10:43:40;3.70;;;0.80;;
82744;SDS011;72484;50.004;14.356;2023-12-22T10:47:39;3.70;;;0.80;;
82744;SDS011;72484;50.004;14.356;2023-12-22T10:51:37;4.20;;;1.00;;
82744;SDS011;72484;50.004;14.356;2023-12-22T10:55:40;5.30;;;1.40;;
82744;SDS011;72484;50.004;14.356;2023-12-22T10:59:38;4.80;;;1.10;;
82744;SDS011;72484;50.004;14.356;2023-12-22T11:03:41;4.00;;;0.90;;
82744;SDS011;72484;50.004;14.356;2023-12-22T11:07:46;3.50;;;0.70;;
82744;SDS011;72484;50.004;14.356;2023-12-22T11:11:49;3.80;;;0.90;;
82744;SDS011;72484;50.004;14.356;2023-12-22T11:15:51;4.10;;;1.00;;
82744;SDS011;72484;50.004;14.356;2023-12-22T11:19:50;4.40;;;1.20;;
82744;SDS011;72484;50.004;14.356;2023-12-22T11:23:54;4.50;;;1.10;;
82744;SDS011;72484;50.004;14.356;2023-12-22T11:27:52;4.90;;;1.10;;
82744;SDS011;72484;50.004;14.356;2023-12-22T11:31:55;8.70;;;3.00;;
82744;SDS011;72484;50.004;14.356;2023-12-22T11:35:56;6.10;;;1.70;;
82744;SDS011;72484;50.004;14.356;2023-12-22T11:39:57;6.40;;;2.00;;
82744;SDS011;72484;50.004;14.356;2023-12-22T11:43:55;6.10;;;1.80;;
82744;SDS011;72484;50.004;14.356;2023-12-22T11:47:57;6.90;;;1.70;;
82744;SDS011;72484;50.004;14.356;2023-12-22T11:52:13;7.10;;;1.90;;
82744;SDS011;72484;50.004;14.356;2023-12-22T11:56:12;8.60;;;1.80;;
82744;SDS011;72484;50.004;14.356;2023-12-22T12:04:36;10.00;;;1.80;;
82744;SDS011;72484;50.004;14.356;2023-12-22T12:08:35;9.60;;;2.30;;
82744;SDS011;72484;50.004;14.356;2023-12-22T12:12:32;9.00;;;2.10;;
82744;SDS011;72484;50.004;14.356;2023-12-22T12:16:30;11.60;;;2.20;;
82744;SDS011;72484;50.004;14.356;2023-12-22T12:20:29;9.90;;;2.40;;
82744;SDS011;72484;50.004;14.356;2023-12-22T12:24:27;12.30;;;3.90;;
82744;SDS011;72484;50.004;14.356;2023-12-22T12:28:26;7.90;;;2.60;;
82744;SDS011;72484;50.004;14.356;2023-12-22T12:32:25;10.20;;;2.60;;
82744;SDS011;72484;50.004;14.356;2023-12-22T12:36:23;8.70;;;2.40;;
82744;SDS011;72484;50.004;14.356;2023-12-22T12:40:21;10.20;;;2.50;;
82744;SDS011;72484;50.004;14.356;2023-12-22T12:44:24;9.10;;;1.60;;
82744;SDS011;72484;50.004;14.356;2023-12-22T12:48:22;7.60;;;1.70;;
82744;SDS011;72484;50.004;14.356;2023-12-22T12:52:20;8.20;;;2.10;;
82744;SDS011;72484;50.004;14.356;2023-12-22T12:56:19;8.50;;;1.90;;
82744;SDS011;72484;50.004;14.356;2023-12-22T13:00:18;9.10;;;1.90;;
82744;SDS011;72484;50.004;14.356;2023-12-22T13:04:21;7.00;;;1.60;;
82744;SDS011;72484;50.004;14.356;2023-12-22T13:08:19;9.60;;;2.10;;
82744;SDS011;72484;50.004;14.356;2023-12-22T13:12:18;7.10;;;1.30;;
82744;SDS011;72484;50.004;14.356;2023-12-22T13:16:18;6.60;;;1.60;;
82744;SDS011;72484;50.004;14.356;2023-12-22T13:20:21;8.80;;;1.80;;
82744;SDS011;72484;50.004;14.356;2023-12-22T13:24:20;8.50;;;2.20;;
82744;SDS011;72484;50.004;14.356;2023-12-22T13:28:26;8.30;;;1.80;;
82744;SDS011;72484;50.004;14.356;2023-12-22T13:32:34;7.60;;;2.10;;
82744;SDS011;72484;50.004;14.356;2023-12-22T13:36:34;7.90;;;2.30;;
82744;SDS011;72484;50.004;14.356;2023-12-22T13:40:32;9.20;;;2.20;;
82744;SDS011;72484;50.004;14.356;2023-12-22T13:44:33;7.80;;;2.10;;
82744;SDS011;72484;50.004;14.356;2023-12-22T13:48:40;9.20;;;2.80;;
82744;SDS011;72484;50.004;14.356;2023-12-22T13:52:38;10.90;;;2.50;;
82744;SDS011;72484;50.004;14.356;2023-12-22T13:57:00;8.50;;;2.00;;
82744;SDS011;72484;50.004;14.356;2023-12-22T14:00:26;6.70;;;1.60;;
82744;SDS011;72484;50.004;14.356;2023-12-22T14:04:26;7.70;;;2.30;;
82744;SDS011;72484;50.004;14.356;2023-12-22T14:08:23;8.00;;;1.80;;
82744;SDS011;72484;50.004;14.356;2023-12-22T14:12:21;6.70;;;1.60;;
82744;SDS011;72484;50.004;14.356;2023-12-22T14:16:19;9.10;;;2.50;;
82744;SDS011;72484;50.004;14.356;2023-12-22T14:20:16;8.10;;;2.10;;
82744;SDS011;72484;50.004;14.356;2023-12-22T14:24:14;7.90;;;2.20;;
82744;SDS011;72484;50.004;14.356;2023-12-22T14:28:12;7.70;;;2.20;;
82744;SDS011;72484;50.004;14.356;2023-12-22T14:32:09;6.30;;;1.70;;
82744;SDS011;72484;50.004;14.356;2023-12-22T14:36:10;6.90;;;1.80;;
82744;SDS011;72484;50.004;14.356;2023-12-22T14:40:09;7.00;;;2.00;;
82744;SDS011;72484;50.004;14.356;2023-12-22T14:44:07;6.90;;;2.30;;
82744;SDS011;72484;50.004;14.356;2023-12-22T14:48:05;7.30;;;2.20;;
82744;SDS011;72484;50.004;14.356;2023-12-22T14:52:10;7.00;;;1.70;;
82744;SDS011;72484;50.004;14.356;2023-12-22T14:55:41;6.70;;;1.70;;
82744;SDS011;72484;50.004;14.356;2023-12-22T14:59:39;5.60;;;1.30;;
82744;SDS011;72484;50.004;14.356;2023-12-22T15:03:36;6.90;;;1.70;;
82744;SDS011;72484;50.004;14.356;2023-12-22T15:07:34;6.20;;;1.50;;
82744;SDS011;72484;50.004;14.356;2023-12-22T15:11:31;5.60;;;1.40;;
82744;SDS011;72484;50.004;14.356;2023-12-22T15:15:29;5.70;;;1.50;;
82744;SDS011;72484;50.004;14.356;2023-12-22T15:19:27;5.80;;;1.50;;
82744;SDS011;72484;50.004;14.356;2023-12-22T15:23:26;6.80;;;1.60;;
82744;SDS011;72484;50.004;14.356;2023-12-22T15:27:27;6.20;;;1.60;;
82744;SDS011;72484;50.004;14.356;2023-12-22T15:31:27;5.40;;;1.40;;
82744;SDS011;72484;50.004;14.356;2023-12-22T15:35:25;7.30;;;2.10;;
82744;SDS011;72484;50.004;14.356;2023-12-22T15:39:23;6.40;;;2.50;;
82744;SDS011;72484;50.004;14.356;2023-12-22T15:43:20;7.50;;;2.80;;
82744;SDS011;72484;50.004;14.356;2023-12-22T15:47:21;6.40;;;2.40;;
82744;SDS011;72484;50.004;14.356;2023-12-22T15:51:19;5.80;;;1.80;;
82744;SDS011;72484;50.004;14.356;2023-12-22T15:55:18;5.10;;;1.30;;
82744;SDS011;72484;50.004;14.356;2023-12-22T15:59:16;5.70;;;1.50;;
82744;SDS011;72484;50.004;14.356;2023-12-22T16:03:14;5.30;;;1.30;;
82744;SDS011;72484;50.004;14.356;2023-12-22T16:07:14;6.00;;;1.50;;
82744;SDS011;72484;50.004;14.356;2023-12-22T16:11:12;5.10;;;1.30;;
82744;SDS011;72484;50.004;14.356;2023-12-22T16:15:10;5.40;;;1.20;;
82744;SDS011;72484;50.004;14.356;2023-12-22T16:19:08;5.80;;;1.40;;
82744;SDS011;72484;50.004;14.356;2023-12-22T16:23:09;5.30;;;1.10;;
82744;SDS011;72484;50.004;14.356;2023-12-22T16:27:07;6.20;;;1.70;;
82744;SDS011;72484;50.004;14.356;2023-12-22T16:31:06;6.00;;;1.40;;
82744;SDS011;72484;50.004;14.356;2023-12-22T16:35:05;7.20;;;2.40;;
82744;SDS011;72484;50.004;14.356;2023-12-22T16:39:05;9.40;;;3.90;;
82744;SDS011;72484;50.004;14.356;2023-12-22T16:43:03;8.30;;;3.50;;
82744;SDS011;72484;50.004;14.356;2023-12-22T16:47:01;7.70;;;2.50;;
82744;SDS011;72484;50.004;14.356;2023-12-22T16:50:59;7.50;;;2.40;;
82744;SDS011;72484;50.004;14.356;2023-12-22T16:54:57;6.10;;;1.80;;
82744;SDS011;72484;50.004;14.356;2023-12-22T16:58:56;7.30;;;2.60;;
82744;SDS011;72484;50.004;14.356;2023-12-22T17:02:54;6.30;;;1.80;;
82744;SDS011;72484;50.004;14.356;2023-12-22T17:06:52;6.00;;;1.50;;
82744;SDS011;72484;50.004;14.356;2023-12-22T17:10:50;6.00;;;1.90;;
82744;SDS011;72484;50.004;14.356;2023-12-22T17:14:48;6.10;;;1.40;;
82744;SDS011;72484;50.004;14.356;2023-12-22T17:18:47;5.90;;;1.40;;
82744;SDS011;72484;50.004;14.356;2023-12-22T17:22:45;5.40;;;1.50;;
82744;SDS011;72484;50.004;14.356;2023-12-22T17:26:43;5.50;;;1.40;;
82744;SDS011;72484;50.004;14.356;2023-12-22T17:30:40;5.40;;;1.10;;
82744;SDS011;72484;50.004;14.356;2023-12-22T17:34:39;4.80;;;1.20;;
82744;SDS011;72484;50.004;14.356;2023-12-22T17:38:36;4.60;;;1.10;;
82744;SDS011;72484;50.004;14.356;2023-12-22T17:42:34;5.00;;;1.60;;
82744;SDS011;72484;50.004;14.356;2023-12-22T17:46:31;5.50;;;1.00;;
82744;SDS011;72484;50.004;14.356;2023-12-22T17:50:34;4.60;;;1.00;;
82744;SDS011;72484;50.004;14.356;2023-12-22T17:54:08;4.50;;;1.20;;
82744;SDS011;72484;50.004;14.356;2023-12-22T17:58:05;5.20;;;1.20;;
82744;SDS011;72484;50.004;14.356;2023-12-22T18:02:04;4.90;;;1.10;;
82744;SDS011;72484;50.004;14.356;2023-12-22T18:06:05;4.60;;;1.00;;
82744;SDS011;72484;50.004;14.356;2023-12-22T18:10:03;4.90;;;1.20;;
82744;SDS011;72484;50.004;14.356;2023-12-22T18:14:03;3.90;;;1.00;;
82744;SDS011;72484;50.004;14.356;2023-12-22T18:18:04;4.40;;;1.20;;
82744;SDS011;72484;50.004;14.356;2023-12-22T18:22:02;4.70;;;1.20;;
82744;SDS011;72484;50.004;14.356;2023-12-22T18:26:01;4.60;;;1.20;;
82744;SDS011;72484;50.004;14.356;2023-12-22T18:29:59;4.70;;;1.10;;
82744;SDS011;72484;50.004;14.356;2023-12-22T18:33:57;4.60;;;1.20;;
82744;SDS011;72484;50.004;14.356;2023-12-22T18:37:58;6.00;;;1.90;;
82744;SDS011;72484;50.004;14.356;2023-12-22T18:41:57;5.80;;;1.80;;
82744;SDS011;72484;50.004;14.356;2023-12-22T18:45:57;5.20;;;1.40;;
82744;SDS011;72484;50.004;14.356;2023-12-22T18:49:55;4.90;;;1.30;;
82744;SDS011;72484;50.004;14.356;2023-12-22T18:53:53;5.20;;;1.50;;
82744;SDS011;72484;50.004;14.356;2023-12-22T18:57:50;4.80;;;1.30;;
82744;SDS011;72484;50.004;14.356;2023-12-22T19:01:48;5.20;;;1.20;;
82744;SDS011;72484;50.004;14.356;2023-12-22T19:05:49;6.50;;;1.50;;
82744;SDS011;72484;50.004;14.356;2023-12-22T19:09:50;5.50;;;1.40;;
82744;SDS011;72484;50.004;14.356;2023-12-22T19:13:50;7.90;;;2.30;;
82744;SDS011;72484;50.004;14.356;2023-12-22T19:17:48;8.20;;;2.70;;
82744;SDS011;72484;50.004;14.356;2023-12-22T19:21:46;4.70;;;1.20;;
82744;SDS011;72484;50.004;14.356;2023-12-22T19:25:43;6.80;;;1.70;;
82744;SDS011;72484;50.004;14.356;2023-12-22T19:29:44;6.90;;;2.00;;
82744;SDS011;72484;50.004;14.356;2023-12-22T19:33:42;4.90;;;1.30;;
82744;SDS011;72484;50.004;14.356;2023-12-22T19:37:39;14.70;;;4.80;;
82744;SDS011;72484;50.004;14.356;2023-12-22T19:41:37;4.70;;;1.30;;
82744;SDS011;72484;50.004;14.356;2023-12-22T19:45:35;7.50;;;2.60;;
82744;SDS011;72484;50.004;14.356;2023-12-22T19:49:32;5.20;;;1.60;;
82744;SDS011;72484;50.004;14.356;2023-12-22T19:53:31;6.90;;;2.90;;
82744;SDS011;72484;50.004;14.356;2023-12-22T19:57:28;5.40;;;1.90;;
82744;SDS011;72484;50.004;14.356;2023-12-22T20:01:26;6.60;;;2.90;;
82744;SDS011;72484;50.004;14.356;2023-12-22T20:05:25;5.00;;;1.30;;
82744;SDS011;72484;50.004;14.356;2023-12-22T20:09:27;4.60;;;1.20;;
82744;SDS011;72484;50.004;14.356;2023-12-22T20:13:25;5.10;;;1.60;;
82744;SDS011;72484;50.004;14.356;2023-12-22T20:17:25;4.80;;;1.10;;
82744;SDS011;72484;50.004;14.356;2023-12-22T20:21:24;5.80;;;1.60;;
82744;SDS011;72484;50.004;14.356;2023-12-22T20:25:23;4.80;;;1.10;;
82744;SDS011;72484;50.004;14.356;2023-12-22T20:29:24;5.10;;;1.20;;
82744;SDS011;72484;50.004;14.356;2023-12-22T20:33:21;5.50;;;1.30;;
82744;SDS011;72484;50.004;14.356;2023-12-22T20:37:20;4.50;;;1.00;;
82744;SDS011;72484;50.004;14.356;2023-12-22T20:41:18;4.40;;;1.00;;
82744;SDS011;72484;50.004;14.356;2023-12-22T20:45:16;3.80;;;0.90;;
82744;SDS011;72484;50.004;14.356;2023-12-22T20:49:17;3.60;;;0.70;;
82744;SDS011;72484;50.004;14.356;2023-12-22T20:53:18;4.30;;;1.10;;
82744;SDS011;72484;50.004;14.356;2023-12-22T20:57:15;5.10;;;1.50;;
82744;SDS011;72484;50.004;14.356;2023-12-22T21:01:15;12.60;;;7.20;;
82744;SDS011;72484;50.004;14.356;2023-12-22T21:05:18;4.40;;;1.00;;
82744;SDS011;72484;50.004;14.356;2023-12-22T21:09:15;4.20;;;1.00;;
82744;SDS011;72484;50.004;14.356;2023-12-22T21:13:14;4.10;;;1.00;;
82744;SDS011;72484;50.004;14.356;2023-12-22T21:17:12;5.10;;;1.70;;
82744;SDS011;72484;50.004;14.356;2023-12-22T21:21:13;4.90;;;1.40;;
82744;SDS011;72484;50.004;14.356;2023-12-22T21:25:11;5.50;;;2.20;;
82744;SDS011;72484;50.004;14.356;2023-12-22T21:29:13;6.80;;;2.60;;
82744;SDS011;72484;50.004;14.356;2023-12-22T21:33:11;6.30;;;2.40;;
82744;SDS011;72484;50.004;14.356;2023-12-22T21:37:10;5.40;;;2.10;;
82744;SDS011;72484;50.004;14.356;2023-12-22T21:41:14;5.80;;;2.20;;
82744;SDS011;72484;50.004;14.356;2023-12-22T21:45:12;5.70;;;1.80;;
82744;SDS011;72484;50.004;14.356;2023-12-22T21:49:11;5.50;;;1.30;;
82744;SDS011;72484;50.004;14.356;2023-12-22T21:53:09;5.90;;;1.70;;
82744;SDS011;72484;50.004;14.356;2023-12-22T21:57:08;5.00;;;1.40;;
82744;SDS011;72484;50.004;14.356;2023-12-22T22:01:06;4.90;;;1.20;;
82744;SDS011;72484;50.004;14.356;2023-12-22T22:05:05;5.90;;;1.50;;
82744;SDS011;72484;50.004;14.356;2023-12-22T22:09:08;5.50;;;1.80;;
82744;SDS011;72484;50.004;14.356;2023-12-22T22:13:06;6.20;;;2.10;;
82744;SDS011;72484;50.004;14.356;2023-12-22T22:17:05;6.30;;;2.50;;
82744;SDS011;72484;50.004;14.356;2023-12-22T22:21:02;6.00;;;1.70;;
82744;SDS011;72484;50.004;14.356;2023-12-22T22:25:00;5.20;;;1.60;;
82744;SDS011;72484;50.004;14.356;2023-12-22T22:28:58;5.10;;;1.50;;
82744;SDS011;72484;50.004;14.356;2023-12-22T22:32:56;4.80;;;1.40;;
82744;SDS011;72484;50.004;14.356;2023-12-22T22:36:53;5.00;;;1.20;;
82744;SDS011;72484;50.004;14.356;2023-12-22T22:40:51;4.10;;;0.90;;
82744;SDS011;72484;50.004;14.356;2023-12-22T22:44:49;3.50;;;0.70;;
82744;SDS011;72484;50.004;14.356;2023-12-22T22:48:47;4.10;;;0.90;;
82744;SDS011;72484;50.004;14.356;2023-12-22T22:52:48;3.60;;;0.90;;
82744;SDS011;72484;50.004;14.356;2023-12-22T22:56:46;4.10;;;0.80;;
82744;SDS011;72484;50.004;14.356;2023-12-22T23:00:44;9.40;;;5.60;;
82744;SDS011;72484;50.004;14.356;2023-12-22T23:04:41;5.20;;;2.10;;
82744;SDS011;72484;50.004;14.356;2023-12-22T23:08:39;4.70;;;1.50;;
82744;SDS011;72484;50.004;14.356;2023-12-22T23:12:38;4.00;;;0.90;;
82744;SDS011;72484;50.004;14.356;2023-12-22T23:16:36;4.70;;;1.20;;
82744;SDS011;72484;50.004;14.356;2023-12-22T23:20:34;5.20;;;1.40;;
82744;SDS011;72484;50.004;14.356;2023-12-22T23:24:33;4.60;;;1.10;;
82744;SDS011;72484;50.004;14.356;2023-12-22T23:28:38;3.60;;;0.70;;
82744;SDS011;72484;50.004;14.356;2023-12-22T23:32:08;4.80;;;1.30;;
82744;SDS011;72484;50.004;14.356;2023-12-22T23:36:08;5.00;;;1.30;;
82744;SDS011;72484;50.004;14.356;2023-12-22T23:40:07;4.20;;;0.90;;